Time;durP1;ratioP1;P1;durP2;ratioP2;P2;SDS_P1;SDS_P2;PMS_P1;PMS_P2;Temp;Humidity;BMP_temperature;BMP_pressure;BME280_temperature;BME280_humidity;BME280_pressure;Samples;Min_cycle;Max_cycle;Signal;HPM_P1;HPM_P2
2021/06/23 00:01:07;;;;;;;13.02;11.93;;;;;;;15.12;88.30;95637.34;4974821;28;20188;-75
2021/06/23 00:03:32;;;;;;;15.05;13.55;;;;;;;15.08;88.46;95646.53;4974479;28;20541;-76
2021/06/23 00:05:57;;;;;;;14.48;13.13;;;;;;;15.06;88.59;95651.94;4993652;28;20207;-76
2021/06/23 00:08:22;;;;;;;14.68;12.00;;;;;;;15.10;88.64;95647.16;5003458;28;20221;-76
2021/06/23 00:10:50;;;;;;;13.88;12.48;;;;;;;15.09;88.64;95645.53;5010123;28;20211;-76
2021/06/23 00:13:16;;;;;;;13.95;12.40;;;;;;;15.06;88.93;95651.94;4994144;28;20198;-75
2021/06/23 00:15:41;;;;;;;13.90;12.43;;;;;;;15.05;89.02;95654.72;4969899;28;20239;-75
2021/06/23 00:18:06;;;;;;;14.30;13.02;;;;;;;15.07;89.00;95658.78;5010859;28;20179;-76
2021/06/23 00:20:33;;;;;;;15.25;13.73;;;;;;;15.08;88.85;95665.63;4994002;28;20621;-76
2021/06/23 00:22:58;;;;;;;12.85;11.65;;;;;;;15.13;88.85;95670.38;5011511;28;20205;-76
2021/06/23 00:25:23;;;;;;;12.60;11.40;;;;;;;15.14;88.63;95664.97;4971436;28;20243;-75
2021/06/23 00:27:49;;;;;;;11.75;10.63;;;;;;;15.17;88.24;95669.03;4982468;28;20177;-76
2021/06/23 00:30:15;;;;;;;11.52;10.38;;;;;;;15.13;88.46;95672.97;4974372;28;20254;-75
2021/06/23 00:32:41;;;;;;;12.57;9.43;;;;;;;15.20;88.16;95671.31;4974411;28;20676;-76
2021/06/23 00:35:08;;;;;;;11.45;10.45;;;;;;;15.26;87.49;95662.75;4958521;28;20215;-76
2021/06/23 00:37:34;;;;;;;12.18;10.88;;;;;;;15.16;88.14;95664.78;4984133;28;20182;-76
2021/06/23 00:39:59;;;;;;;13.25;10.77;;;;;;;15.15;88.03;95661.34;4993264;28;20179;-75
2021/06/23 00:42:24;;;;;;;13.95;12.57;;;;;;;15.13;88.32;95657.28;5000642;28;20194;-76
2021/06/23 00:44:50;;;;;;;14.05;12.65;;;;;;;15.12;88.18;95661.72;4976868;28;20224;-76
2021/06/23 00:47:16;;;;;;;12.93;11.65;;;;;;;15.11;88.35;95659.28;4979367;28;20176;-75
2021/06/23 00:49:42;;;;;;;12.90;11.60;;;;;;;15.09;88.79;95664.66;4990382;28;20211;-75
2021/06/23 00:52:08;;;;;;;13.10;11.65;;;;;;;15.07;88.72;95658.78;4997511;28;20202;-75
2021/06/23 00:54:34;;;;;;;11.90;10.82;;;;;;;15.19;87.88;95661.81;4997126;28;20186;-75
2021/06/23 00:56:59;;;;;;;11.65;10.52;;;;;;;15.22;87.65;95664.09;4995433;28;20229;-75
2021/06/23 00:59:25;;;;;;;14.35;12.98;;;;;;;15.11;87.92;95669.72;4985955;28;20180;-75
2021/06/23 01:01:50;;;;;;;14.07;12.43;;;;;;;15.06;88.44;95656.34;4991811;28;20187;-75
2021/06/23 01:04:16;;;;;;;15.90;14.30;;;;;;;14.99;89.60;95653.59;4997057;28;20183;-76
2021/06/23 01:06:42;;;;;;;15.73;14.23;;;;;;;15.00;89.12;95648.19;4997212;28;20203;-76
2021/06/23 01:09:07;;;;;;;18.15;16.35;;;;;;;14.95;89.40;95653.13;4987963;28;20179;-76
2021/06/23 01:11:40;;;;;;;20.85;18.05;;;;;;;14.95;89.57;95668.81;4982764;28;20211;-75
2021/06/23 01:14:05;;;;;;;21.13;18.83;;;;;;;14.99;89.50;95666.66;4977558;28;20704;-75
2021/06/23 01:16:34;;;;;;;19.50;17.42;;;;;;;15.00;89.34;95663.88;4977610;28;20282;-76
2021/06/23 01:19:07;;;;;;;17.55;15.75;;;;;;;15.03;89.46;95667.97;4984638;28;20198;-76
2021/06/23 01:21:32;;;;;;;14.90;13.43;;;;;;;15.04;89.42;95664.38;4991619;28;20175;-76
2021/06/23 01:23:57;;;;;;;16.00;12.88;;;;;;;15.07;89.28;95668.44;4996761;28;20241;-76
2021/06/23 01:26:23;;;;;;;14.05;12.77;;;;;;;15.08;88.97;95667.44;5014455;28;20195;-75
2021/06/23 01:28:48;;;;;;;14.18;12.68;;;;;;;15.10;88.53;95666.28;5013213;28;20736;-76
2021/06/23 01:31:14;;;;;;;14.93;13.43;;;;;;;15.10;88.46;95662.84;5001462;28;20222;-76
2021/06/23 01:33:40;;;;;;;18.27;14.23;;;;;;;15.04;89.18;95658.31;4977085;28;20175;-76
2021/06/23 01:36:06;;;;;;;16.27;14.25;;;;;;;15.09;88.76;95656.00;4977095;28;20578;-76
2021/06/23 01:38:31;;;;;;;15.40;13.95;;;;;;;15.03;89.01;95647.06;4977286;28;20176;-75
2021/06/23 01:40:56;;;;;;;16.63;15.10;;;;;;;15.05;89.05;95646.88;4985258;28;20184;-76
2021/06/23 01:43:22;;;;;;;15.98;14.48;;;;;;;15.07;88.86;95657.97;5001049;28;20180;-75
2021/06/23 01:45:48;;;;;;;17.23;15.52;;;;;;;15.07;88.98;95657.97;4977107;28;20204;-76
2021/06/23 01:48:15;;;;;;;18.02;15.40;;;;;;;15.08;88.83;95649.13;4977015;28;20701;-75
2021/06/23 01:50:41;;;;;;;18.13;16.23;;;;;;;15.08;88.82;95647.34;4983750;28;20187;-76
2021/06/23 01:53:07;;;;;;;16.90;15.30;;;;;;;15.07;88.96;95642.28;4988219;28;20187;-76
2021/06/23 01:55:32;;;;;;;16.33;14.73;;;;;;;15.12;88.83;95624.28;4996207;28;20619;-76
2021/06/23 01:58:08;;;;;;;17.73;15.57;;;;;;;15.07;88.68;95632.63;4996410;28;20631;-76
2021/06/23 02:00:46;;;;;;;19.33;17.30;;;;;;;15.08;88.65;95626.41;4995264;28;22332;-75
2021/06/23 02:03:19;;;;;;;18.70;15.90;;;;;;;15.07;88.64;95613.50;4991466;28;20176;-76
2021/06/23 02:06:05;;;;;;;17.80;16.00;;;;;;;15.12;88.69;95614.63;4976762;28;20275;-75
2021/06/23 02:08:52;;;;;;;16.15;14.55;;;;;;;15.06;88.97;95622.34;4976471;28;20203;-76
2021/06/23 02:11:34;;;;;;;15.85;14.18;;;;;;;15.04;88.96;95616.47;4978642;28;20683;-76
2021/06/23 02:14:10;;;;;;;17.40;13.95;;;;;;;15.13;88.88;95610.22;5008541;28;20185;-75
2021/06/23 02:16:38;;;;;;;13.95;12.45;;;;;;;15.09;88.68;95614.97;4960364;28;20202;-76
2021/06/23 02:19:05;;;;;;;13.38;11.98;;;;;;;15.08;88.85;95607.28;4976458;28;20179;-76
2021/06/23 02:21:32;;;;;;;14.13;12.65;;;;;;;15.02;88.84;95609.63;4976454;28;20204;-75
2021/06/23 02:23:59;;;;;;;11.93;10.88;;;;;;;15.10;88.84;95607.91;4984235;28;20187;-76
2021/06/23 02:26:24;;;;;;;12.98;11.77;;;;;;;15.02;89.17;95608.81;5013468;28;20203;-76
2021/06/23 02:28:50;;;;;;;13.13;11.75;;;;;;;14.98;89.40;95608.31;4995762;28;20186;-75
2021/06/23 02:31:15;;;;;;;12.77;11.60;;;;;;;14.98;89.39;95608.31;4995648;28;20713;-75
2021/06/23 02:33:41;;;;;;;13.52;12.18;;;;;;;14.98;89.32;95613.56;4985315;28;20184;-76
2021/06/23 02:36:07;;;;;;;13.23;11.25;;;;;;;14.99;89.48;95614.38;4984003;28;20694;-76
2021/06/23 02:38:32;;;;;;;14.07;12.68;;;;;;;14.97;89.57;95619.78;4976059;28;20176;-76
2021/06/23 02:40:58;;;;;;;15.15;12.55;;;;;;;15.00;89.68;95616.00;4993487;28;20296;-76
2021/06/23 02:43:23;;;;;;;15.30;13.05;;;;;;;15.01;89.86;95612.38;4978637;28;20183;-76
2021/06/23 02:45:49;;;;;;;13.25;12.05;;;;;;;15.00;89.96;95616.81;4986904;28;20571;-76
2021/06/23 02:48:14;;;;;;;14.30;12.40;;;;;;;15.07;89.88;95621.34;4976073;28;20176;-75
2021/06/23 02:50:56;;;;;;;13.40;12.10;;;;;;;15.06;89.67;95628.38;4975813;28;20179;-76
2021/06/23 02:53:22;;;;;;;13.18;11.85;;;;;;;15.07;89.94;95627.41;4993038;28;20648;-76
2021/06/23 02:55:47;;;;;;;14.45;11.80;;;;;;;15.12;90.04;95640.78;4982940;28;20266;-76
2021/06/23 02:58:13;;;;;;;15.82;13.57;;;;;;;15.11;90.08;95641.78;4995274;28;20171;-76
2021/06/23 03:00:41;;;;;;;13.23;11.93;;;;;;;15.13;90.07;95641.59;4978857;28;20179;-76
2021/06/23 03:03:06;;;;;;;13.88;12.48;;;;;;;15.15;89.91;95653.50;4995150;28;20206;-76
2021/06/23 03:05:31;;;;;;;13.45;12.07;;;;;;;15.17;90.08;95658.56;5005114;28;20231;-76
2021/06/23 03:07:57;;;;;;;14.35;13.00;;;;;;;15.14;90.04;95657.13;4983741;28;20180;-76
2021/06/23 03:10:22;;;;;;;13.40;11.95;;;;;;;15.30;89.33;95661.44;4975542;28;20180;-75
2021/06/23 03:12:47;;;;;;;12.45;11.35;;;;;;;15.27;89.49;95661.75;4975080;28;20230;-76
2021/06/23 03:15:13;;;;;;;13.23;10.75;;;;;;;15.35;89.31;95660.91;4994527;28;20841;-76
2021/06/23 03:17:38;;;;;;;12.85;11.45;;;;;;;15.31;89.37;95663.06;5004152;28;20271;-75
2021/06/23 03:20:10;;;;;;;12.25;11.13;;;;;;;15.27;89.44;95667.00;4993729;28;20210;-75
2021/06/23 03:22:36;;;;;;;13.13;11.88;;;;;;;15.23;89.61;95657.88;4975236;28;20651;-76
2021/06/23 03:25:02;;;;;;;12.55;11.35;;;;;;;15.21;89.77;95660.66;4975018;28;20207;-76
2021/06/23 03:27:28;;;;;;;13.68;12.13;;;;;;;15.29;89.32;95667.66;4982325;28;20279;-75
2021/06/23 03:29:53;;;;;;;17.23;12.73;;;;;;;15.26;89.59;95665.38;4992212;28;20175;-76
2021/06/23 03:32:18;;;;;;;14.15;12.77;;;;;;;15.25;89.76;95671.59;5012154;28;20306;-76
2021/06/23 03:34:44;;;;;;;12.80;11.65;;;;;;;15.28;89.78;95676.47;4994081;28;20197;-76
2021/06/23 03:37:09;;;;;;;13.23;11.48;;;;;;;15.30;89.78;95670.09;5007956;28;20184;-76
2021/06/23 03:39:35;;;;;;;10.98;9.98;;;;;;;15.37;89.60;95680.69;4982847;28;20718;-76
2021/06/23 03:42:00;;;;;;;12.30;11.10;;;;;;;15.33;89.64;95674.16;4975106;28;20177;-76
2021/06/23 03:44:25;;;;;;;13.35;11.63;;;;;;;15.33;89.78;95662.88;4992259;28;20610;-75
2021/06/23 03:46:52;;;;;;;14.85;11.45;;;;;;;15.33;89.86;95668.94;4992220;28;20218;-75
2021/06/23 03:49:18;;;;;;;12.65;11.35;;;;;;;15.34;89.88;95675.78;4984772;28;20179;-75
2021/06/23 03:51:43;;;;;;;13.57;11.50;;;;;;;15.30;90.21;95672.72;5011643;28;20268;-75
2021/06/23 03:54:08;;;;;;;13.18;11.88;;;;;;;15.31;90.34;95673.53;5011681;28;20696;-76
2021/06/23 03:56:34;;;;;;;13.30;11.90;;;;;;;15.33;90.23;95675.97;5010478;28;20219;-75
2021/06/23 03:58:59;;;;;;;16.98;11.73;;;;;;;15.34;90.00;95673.16;4991115;28;20655;-76
2021/06/23 04:01:25;;;;;;;12.30;11.07;;;;;;;15.34;90.41;95675.78;5005367;28;20225;-75
2021/06/23 04:03:50;;;;;;;13.05;11.75;;;;;;;15.36;90.06;95679.03;4993812;28;20225;-76
2021/06/23 04:06:15;;;;;;;15.50;11.82;;;;;;;15.40;89.97;95688.19;4993925;28;20199;-76
2021/06/23 04:08:41;;;;;;;12.85;11.55;;;;;;;15.44;90.01;95686.03;5009465;28;20641;-76
2021/06/23 04:11:06;;;;;;;11.75;10.70;;;;;;;15.47;89.80;95686.50;5000569;28;20696;-75
2021/06/23 04:13:31;;;;;;;12.32;11.13;;;;;;;15.48;89.67;95690.75;4974236;28;20671;-75
2021/06/23 04:15:56;;;;;;;14.18;10.88;;;;;;;15.56;89.59;95684.66;4974551;28;20238;-75
2021/06/23 04:18:22;;;;;;;11.52;10.43;;;;;;;15.64;89.08;95682.00;4992006;28;20177;-76
2021/06/23 04:20:47;;;;;;;10.63;9.60;;;;;;;15.71;88.88;95679.47;4965592;28;20188;-75
2021/06/23 04:23:12;;;;;;;11.50;9.48;;;;;;;15.68;88.84;95683.25;4982125;28;20182;-76
2021/06/23 04:25:38;;;;;;;11.75;9.82;;;;;;;15.72;88.93;95694.19;4976603;28;20382;-76
2021/06/23 04:28:03;;;;;;;11.57;10.38;;;;;;;15.73;88.70;95696.66;4978440;28;20183;-75
2021/06/23 04:30:28;;;;;;;10.70;9.60;;;;;;;15.78;88.64;95694.31;4967750;28;20191;-76
2021/06/23 04:32:54;;;;;;;11.52;10.07;;;;;;;15.83;88.28;95694.59;5007203;28;20199;-76
2021/06/23 04:35:19;;;;;;;11.48;9.80;;;;;;;15.91;88.22;95704.19;4981003;28;20218;-76
2021/06/23 04:37:44;;;;;;;12.27;9.98;;;;;;;16.09;87.62;95704.69;4997805;28;20175;-76
2021/06/23 04:40:15;;;;;;;10.25;9.07;;;;;;;16.24;87.27;95704.69;5014801;28;20179;-75
2021/06/23 04:42:41;;;;;;;8.63;7.70;;;;;;;16.14;86.22;95699.72;5005563;28;20185;-75
2021/06/23 04:45:09;;;;;;;7.30;6.70;;;;;;;16.20;85.98;95702.63;4978490;28;20250;-76
2021/06/23 04:47:35;;;;;;;7.00;6.50;;;;;;;16.20;85.48;95697.38;4977660;28;20267;-75
2021/06/23 04:50:00;;;;;;;9.30;6.75;;;;;;;16.32;84.92;95703.81;4962011;28;20215;-76
2021/06/23 04:52:25;;;;;;;9.88;6.97;;;;;;;16.68;83.55;95701.28;4986673;28;20211;-76
2021/06/23 04:54:51;;;;;;;7.97;6.65;;;;;;;17.30;82.04;95705.31;4987767;28;20271;-75
2021/06/23 04:57:16;;;;;;;7.70;6.97;;;;;;;17.40;81.17;95713.69;4995591;28;20199;-76
2021/06/23 04:59:42;;;;;;;7.35;6.65;;;;;;;17.66;79.46;95707.91;4978010;28;20267;-76
2021/06/23 05:02:07;;;;;;;6.53;5.93;;;;;;;18.74;74.51;95712.03;4982369;28;20180;-76
2021/06/23 05:04:33;;;;;;;6.90;6.30;;;;;;;18.70;74.47;95710.78;4989063;28;20171;-76
2021/06/23 05:07:02;;;;;;;6.40;5.80;;;;;;;18.26;74.75;95714.50;4997465;28;20199;-76
2021/06/23 05:09:27;;;;;;;6.55;5.95;;;;;;;17.86;76.99;95705.50;5014883;28;20199;-75
2021/06/23 05:11:53;;;;;;;8.02;7.15;;;;;;;17.10;79.65;95705.09;4997056;28;20207;-76
2021/06/23 05:14:18;;;;;;;10.43;9.13;;;;;;;16.75;81.92;95707.47;5005461;28;20681;-75
2021/06/23 05:16:47;;;;;;;9.30;8.32;;;;;;;16.66;82.21;95704.09;4998696;28;20238;-76
2021/06/23 05:19:12;;;;;;;9.98;8.98;;;;;;;16.52;83.11;95701.47;4978125;28;20175;-75
2021/06/23 05:21:38;;;;;;;10.88;9.77;;;;;;;16.29;84.80;95712.03;4977610;28;20223;-76
2021/06/23 05:24:05;;;;;;;12.80;11.55;;;;;;;16.34;84.90;95709.69;4985278;28;20685;-75
2021/06/23 05:26:30;;;;;;;11.07;9.93;;;;;;;16.32;84.26;95720.34;4985443;28;20228;-75
2021/06/23 05:28:56;;;;;;;12.02;10.82;;;;;;;16.39;84.73;95721.25;4977316;28;20238;-75
2021/06/23 05:31:21;;;;;;;10.82;9.60;;;;;;;16.45;84.25;95730.22;4977364;28;20212;-75
2021/06/23 05:33:46;;;;;;;10.63;9.52;;;;;;;16.42;84.60;95731.38;4996534;28;20272;-74
2021/06/23 05:36:11;;;;;;;10.38;9.48;;;;;;;16.52;84.04;95733.75;5005155;28;20264;-75
2021/06/23 05:38:37;;;;;;;11.57;9.98;;;;;;;16.59;83.51;95732.03;4996735;28;20175;-75
2021/06/23 05:41:02;;;;;;;10.90;9.77;;;;;;;16.63;83.74;95737.75;5014303;28;20234;-74
2021/06/23 05:43:28;;;;;;;14.48;11.93;;;;;;;16.59;83.24;95741.69;4996448;28;20249;-74
2021/06/23 05:45:53;;;;;;;14.45;12.38;;;;;;;16.60;84.18;95745.94;5004787;28;20215;-75
2021/06/23 05:48:18;;;;;;;14.90;13.32;;;;;;;16.42;84.53;95748.91;5001196;28;20211;-75
2021/06/23 05:50:45;;;;;;;14.52;13.02;;;;;;;16.51;84.42;95747.84;4977086;28;20172;-74
2021/06/23 05:53:10;;;;;;;13.88;12.45;;;;;;;16.47;84.39;95748.38;4994252;28;20204;-75
2021/06/23 05:55:37;;;;;;;14.98;13.40;;;;;;;16.45;84.43;95759.06;4999780;28;20207;-75
2021/06/23 05:58:02;;;;;;;13.65;12.25;;;;;;;16.46;84.54;95763.31;4986129;28;20663;-75
2021/06/23 06:00:28;;;;;;;14.80;12.32;;;;;;;17.07;81.64;95758.75;4994413;28;20172;-74
2021/06/23 06:02:53;;;;;;;15.68;12.00;;;;;;;17.28;79.86;95760.59;4976609;28;20255;-74
2021/06/23 06:05:19;;;;;;;15.45;13.57;;;;;;;17.00;80.93;95768.34;4976748;28;20698;-75
2021/06/23 06:07:44;;;;;;;14.75;13.13;;;;;;;17.08;80.75;95765.63;4969858;28;20187;-75
2021/06/23 06:10:10;;;;;;;16.52;13.00;;;;;;;16.91;81.03;95764.19;5013500;28;20179;-75
2021/06/23 06:12:36;;;;;;;20.20;14.70;;;;;;;16.66;82.99;95774.06;4995991;28;20209;-76
2021/06/23 06:15:02;;;;;;;18.27;15.60;;;;;;;16.65;82.83;95769.84;4997322;28;20191;-74
2021/06/23 06:17:27;;;;;;;17.48;14.70;;;;;;;16.62;82.95;95763.16;5007009;28;20184;-74
2021/06/23 06:19:52;;;;;;;21.08;17.08;;;;;;;16.68;82.54;95772.94;5000556;28;20187;-75
2021/06/23 06:22:18;;;;;;;24.98;20.80;;;;;;;16.66;82.74;95772.28;4976728;28;20519;-75
2021/06/23 06:24:43;;;;;;;26.17;22.40;;;;;;;16.68;82.59;95775.56;4960336;28;20266;-75
2021/06/23 06:27:09;;;;;;;22.35;18.38;;;;;;;16.68;83.38;95767.69;4978743;28;20187;-76
2021/06/23 06:29:34;;;;;;;25.02;19.52;;;;;;;16.67;83.17;95770.47;4987500;28;20214;-75
2021/06/23 06:31:59;;;;;;;28.48;21.05;;;;;;;16.58;82.39;95776.78;4977825;28;20211;-75
2021/06/23 06:34:25;;;;;;;25.85;21.92;;;;;;;16.66;83.31;95782.75;4975857;28;20224;-76
2021/06/23 06:36:50;;;;;;;23.77;21.25;;;;;;;16.59;82.72;95781.03;4961142;28;20231;-76
2021/06/23 06:39:15;;;;;;;24.98;20.50;;;;;;;16.80;82.52;95780.38;4987819;28;20550;-75
2021/06/23 06:41:41;;;;;;;21.42;17.05;;;;;;;17.28;80.66;95786.84;4978931;28;20172;-74
2021/06/23 06:44:06;;;;;;;20.65;16.35;;;;;;;17.65;78.08;95782.44;4975770;28;20176;-74
2021/06/23 06:46:31;;;;;;;18.58;16.17;;;;;;;19.26;71.74;95785.19;4975974;28;20639;-74
2021/06/23 06:48:56;;;;;;;18.83;16.52;;;;;;;20.15;66.24;95777.16;4997159;28;20602;-74
2021/06/23 06:51:22;;;;;;;19.95;17.30;;;;;;;22.29;60.08;95777.97;4983722;28;20192;-74
2021/06/23 06:53:47;;;;;;;14.23;12.63;;;;;;;22.15;58.02;95781.72;4993221;28;20183;-74
2021/06/23 06:56:12;;;;;;;15.27;13.40;;;;;;;23.11;55.37;95791.94;4993152;28;20283;-74
2021/06/23 06:58:38;;;;;;;15.70;13.13;;;;;;;23.83;52.68;95792.13;4975767;28;20194;-74
2021/06/23 07:01:03;;;;;;;12.45;10.98;;;;;;;25.50;48.72;95789.22;5002409;28;20176;-74
2021/06/23 07:03:29;;;;;;;14.82;11.98;;;;;;;23.49;52.13;95800.69;4981257;28;20207;-74
2021/06/23 07:05:55;;;;;;;11.90;10.50;;;;;;;22.66;54.78;95796.59;4975833;28;20203;-74
2021/06/23 07:08:20;;;;;;;12.88;11.68;;;;;;;21.87;57.35;95797.13;4975635;28;20176;-73
2021/06/23 07:10:45;;;;;;;14.32;12.05;;;;;;;21.74;59.25;95800.66;5002709;28;20186;-74
2021/06/23 07:13:11;;;;;;;13.88;12.30;;;;;;;22.32;55.57;95805.81;4986376;28;20190;-74
2021/06/23 07:15:36;;;;;;;12.15;11.05;;;;;;;23.17;53.20;95806.94;4994947;28;20199;-74
2021/06/23 07:18:01;;;;;;;11.85;10.65;;;;;;;22.96;54.35;95817.13;5012454;28;20669;-74
2021/06/23 07:20:27;;;;;;;12.13;10.93;;;;;;;23.13;54.21;95811.06;4990236;28;20215;-74
2021/06/23 07:22:52;;;;;;;11.75;10.05;;;;;;;24.48;49.43;95807.38;4985532;28;20178;-74
2021/06/23 07:25:17;;;;;;;10.30;9.27;;;;;;;24.53;49.81;95821.56;4973927;28;20204;-74
2021/06/23 07:27:43;;;;;;;11.63;10.45;;;;;;;23.20;51.96;95823.44;4975000;28;20176;-74
2021/06/23 07:30:09;;;;;;;11.65;9.13;;;;;;;22.36;54.83;95816.81;4975446;28;20180;-73
2021/06/23 07:32:53;;;;;;;11.32;9.82;;;;;;;21.42;57.71;95819.06;4986157;28;20551;-74
2021/06/23 07:38:06;;;;;;;8.77;8.00;;;;;;;20.43;60.31;95813.91;4991346;28;20709;-75
2021/06/23 07:40:43;;;;;;;8.30;7.25;;;;;;;20.30;60.53;95812.03;4975737;28;20175;-75
2021/06/23 07:43:13;;;;;;;8.00;7.30;;;;;;;21.47;58.62;95808.72;4991888;28;20267;-75
2021/06/23 07:45:43;;;;;;;8.27;7.47;;;;;;;22.52;53.83;95810.97;4988204;28;20222;-76
2021/06/23 07:48:09;;;;;;;7.72;6.93;;;;;;;22.81;53.24;95810.34;4975529;28;20176;-76
2021/06/23 07:50:41;;;;;;;6.93;6.32;;;;;;;22.53;53.59;95812.63;4975076;28;20731;-76
2021/06/23 07:53:18;;;;;;;6.55;5.70;;;;;;;23.13;51.55;95820.84;4981458;28;20217;-75
2021/06/23 08:09:00;;;;;;;6.43;5.88;;;;;;;21.67;56.83;95807.81;4992359;28;20226;-75
2021/06/23 08:11:30;;;;;;;6.85;6.07;;;;;;;21.88;55.70;95820.72;4992130;28;20203;-75
2021/06/23 08:13:55;;;;;;;7.88;6.93;;;;;;;21.69;56.53;95819.78;4978054;28;20182;-74
2021/06/23 08:16:20;;;;;;;7.95;6.95;;;;;;;22.09;56.05;95819.63;4998646;28;20196;-74
2021/06/23 08:18:46;;;;;;;6.50;5.90;;;;;;;22.32;56.29;95821.69;4958391;28;20259;-75
2021/06/23 08:21:11;;;;;;;6.78;6.07;;;;;;;23.35;53.66;95816.75;4974728;28;20568;-75
2021/06/23 08:23:36;;;;;;;6.72;5.90;;;;;;;23.15;54.58;95810.84;5008165;28;20559;-76
2021/06/23 08:26:02;;;;;;;6.03;5.47;;;;;;;22.49;55.38;95812.22;5002354;28;20210;-76
2021/06/23 08:28:27;;;;;;;6.50;5.90;;;;;;;22.51;54.83;95807.50;4997995;28;20183;-75
2021/06/23 08:30:53;;;;;;;6.05;5.55;;;;;;;22.86;53.46;95805.22;4958354;28;20571;-75
2021/06/23 08:33:18;;;;;;;6.78;6.25;;;;;;;22.84;53.69;95807.28;4974141;28;20263;-75
2021/06/23 08:35:43;;;;;;;7.40;6.72;;;;;;;21.82;56.63;95799.59;4981488;28;20261;-75
2021/06/23 08:38:08;;;;;;;6.05;5.55;;;;;;;21.88;56.18;95799.56;4982196;28;20201;-76
2021/06/23 08:40:34;;;;;;;6.53;5.80;;;;;;;21.00;59.03;95812.44;4974469;28;20222;-76
2021/06/23 08:42:59;;;;;;;5.70;5.20;;;;;;;21.55;57.65;95804.19;4974421;28;20223;-76
2021/06/23 08:45:25;;;;;;;6.72;6.03;;;;;;;21.39;57.68;95813.41;4973956;28;20254;-75
2021/06/23 08:47:50;;;;;;;6.05;5.45;;;;;;;21.73;56.76;95806.94;4984995;28;20278;-75
2021/06/23 08:50:24;;;;;;;6.72;5.88;;;;;;;21.60;57.74;95801.75;4974426;28;20172;-75
2021/06/23 08:52:50;;;;;;;7.35;6.70;;;;;;;22.06;56.65;95804.13;4958053;28;20214;-75
2021/06/23 08:55:20;;;;;;;7.45;6.70;;;;;;;21.24;58.10;95807.53;4965338;28;20207;-75
2021/06/23 08:57:50;;;;;;;8.50;7.25;;;;;;;21.36;59.66;95806.69;4990423;28;20647;-75
2021/06/23 09:00:16;;;;;;;7.57;6.88;;;;;;;21.39;58.09;95803.66;4990639;28;20179;-75
2021/06/23 09:02:43;;;;;;;7.20;6.57;;;;;;;21.56;59.24;95801.34;4991844;28;20179;-75
2021/06/23 09:05:11;;;;;;;9.18;7.80;;;;;;;20.99;60.45;95802.91;4990374;28;20208;-75
2021/06/23 09:07:54;;;;;;;8.43;7.47;;;;;;;21.56;59.11;95800.56;4999766;28;20246;-75
2021/06/23 09:10:23;;;;;;;8.65;7.78;;;;;;;21.35;59.69;95799.78;4974897;28;20279;-75
2021/06/23 09:13:00;;;;;;;8.35;7.00;;;;;;;22.09;57.43;95801.13;4977734;28;20281;-75
2021/06/23 09:15:40;;;;;;;8.23;7.53;;;;;;;22.36;57.75;95795.66;5000817;28;20281;-75
2021/06/23 09:18:10;;;;;;;9.13;8.23;;;;;;;22.53;55.60;95786.16;5006610;28;20179;-75
2021/06/23 09:20:36;;;;;;;8.07;7.28;;;;;;;22.62;55.27;95790.16;4997296;28;20180;-75
2021/06/23 09:23:01;;;;;;;9.35;8.40;;;;;;;22.33;54.73;95783.63;4997223;28;20282;-75
2021/06/23 09:25:27;;;;;;;7.65;6.70;;;;;;;22.49;54.15;95787.59;4995803;28;20242;-75
2021/06/23 09:27:57;;;;;;;10.38;8.27;;;;;;;22.20;56.25;95791.69;4988016;28;20187;-75
2021/06/23 09:30:27;;;;;;;11.55;8.68;;;;;;;22.00;56.31;95786.50;4977735;28;20255;-75
2021/06/23 09:33:21;;;;;;;7.88;7.07;;;;;;;21.86;57.13;95784.94;4977527;28;20234;-75
2021/06/23 09:35:47;;;;;;;8.88;7.65;;;;;;;22.52;55.54;95790.59;4993363;28;20697;-74
2021/06/23 09:38:32;;;;;;;10.68;8.30;;;;;;;22.03;58.14;95788.72;5005634;28;20639;-75
2021/06/23 09:40:59;;;;;;;9.98;8.18;;;;;;;21.66;58.51;95788.50;4963085;28;20179;-75
2021/06/23 09:43:34;;;;;;;10.88;9.77;;;;;;;21.46;59.33;95785.94;4994453;28;20710;-75
2021/06/23 09:45:59;;;;;;;8.80;8.00;;;;;;;21.68;58.61;95790.94;4977247;28;20675;-74
2021/06/23 09:48:27;;;;;;;8.63;7.75;;;;;;;21.20;60.68;95785.97;5003928;28;20190;-75
2021/06/23 09:51:09;;;;;;;10.50;9.02;;;;;;;20.51;62.80;95779.44;4993859;28;20183;-75
2021/06/23 09:53:34;;;;;;;9.05;8.13;;;;;;;21.45;59.89;95786.13;4996118;28;20206;-74
2021/06/23 09:56:00;;;;;;;10.13;9.23;;;;;;;21.32;59.50;95794.13;4996510;28;20265;-74
2021/06/23 09:58:29;;;;;;;10.48;8.43;;;;;;;21.98;58.87;95793.81;5007561;28;20287;-74
2021/06/23 10:01:04;;;;;;;10.60;7.95;;;;;;;22.30;57.10;95798.13;5001123;28;20242;-75
2021/06/23 10:03:34;;;;;;;9.15;7.88;;;;;;;22.19;56.52;95792.72;4976757;28;20175;-74
2021/06/23 10:06:26;;;;;;;8.65;7.85;;;;;;;22.32;56.94;95793.41;4977063;28;20278;-75
2021/06/23 10:08:52;;;;;;;9.00;8.20;;;;;;;22.51;55.91;95790.81;4983951;28;20206;-75
2021/06/23 10:11:30;;;;;;;7.32;6.72;;;;;;;22.70;56.05;95795.13;4984700;28;20199;-75
2021/06/23 10:13:57;;;;;;;8.95;8.13;;;;;;;21.74;58.37;95788.25;4976659;28;20636;-75
2021/06/23 10:16:25;;;;;;;10.25;7.85;;;;;;;21.76;58.10;95788.84;4976554;28;20199;-74
2021/06/23 10:18:52;;;;;;;9.35;8.45;;;;;;;21.11;59.82;95790.69;4979253;28;20179;-74
2021/06/23 10:21:17;;;;;;;7.43;6.72;;;;;;;21.42;59.99;95789.22;4987356;28;20266;-74
2021/06/23 10:23:43;;;;;;;9.35;6.85;;;;;;;22.06;58.16;95780.34;4994816;28;20255;-74
2021/06/23 10:26:08;;;;;;;8.27;6.82;;;;;;;21.98;58.74;95777.94;4995841;28;20839;-74
2021/06/23 10:28:35;;;;;;;8.52;7.53;;;;;;;22.10;58.67;95776.28;5013546;28;20171;-75
2021/06/23 10:31:01;;;;;;;7.30;6.60;;;;;;;22.20;56.70;95775.81;5004066;28;20188;-75
2021/06/23 10:33:28;;;;;;;9.23;7.78;;;;;;;21.85;58.83;95773.56;4982194;28;20210;-75
2021/06/23 10:35:53;;;;;;;7.68;6.88;;;;;;;22.19;56.10;95771.56;4976220;28;20227;-74
2021/06/23 10:38:19;;;;;;;6.65;6.07;;;;;;;22.16;57.69;95767.47;4976551;28;20186;-75
2021/06/23 10:40:45;;;;;;;6.88;6.07;;;;;;;22.79;55.27;95779.78;4984360;28;20187;-74
2021/06/23 10:43:12;;;;;;;5.38;4.80;;;;;;;23.04;55.90;95777.13;4984227;28;20172;-74
2021/06/23 10:45:45;;;;;;;7.85;6.30;;;;;;;22.71;55.47;95774.78;4976006;28;20199;-75
2021/06/23 10:48:11;;;;;;;8.05;7.22;;;;;;;22.19;54.37;95776.84;4993762;28;20168;-74
2021/06/23 10:50:37;;;;;;;7.15;5.85;;;;;;;22.54;53.62;95783.28;4961159;28;20176;-74
2021/06/23 10:53:04;;;;;;;7.25;5.28;;;;;;;22.70;53.22;95786.38;4984918;28;20214;-75
2021/06/23 10:55:30;;;;;;;6.72;5.32;;;;;;;23.11;53.42;95788.47;4975757;28;20266;-74
2021/06/23 10:57:59;;;;;;;6.97;5.25;;;;;;;22.90;52.09;95776.47;4993267;28;20168;-74
2021/06/23 11:00:30;;;;;;;6.55;5.30;;;;;;;23.66;52.73;95783.97;4976343;28;20176;-74
2021/06/23 11:03:19;;;;;;;7.13;6.50;;;;;;;22.91;53.76;95785.22;4981997;28;20734;-74
2021/06/23 11:05:51;;;;;;;6.85;5.85;;;;;;;22.83;55.20;95783.63;4990829;28;20230;-75
2021/06/23 11:08:22;;;;;;;6.32;5.75;;;;;;;22.94;55.79;95792.72;4993294;28;20179;-75
2021/06/23 11:10:48;;;;;;;6.75;6.15;;;;;;;22.34;56.55;95787.91;4975712;28;20191;-75
2021/06/23 11:13:25;;;;;;;7.35;6.75;;;;;;;21.76;58.65;95773.00;4999483;28;20590;-75
2021/06/23 11:15:51;;;;;;;7.10;6.50;;;;;;;21.57;58.87;95781.03;4992204;28;20277;-74
2021/06/23 11:18:37;;;;;;;7.40;6.78;;;;;;;21.31;59.97;95790.69;4995025;28;20487;-74
2021/06/23 11:21:06;;;;;;;7.18;6.40;;;;;;;21.17;60.49;95792.50;4995141;28;20259;-74
2021/06/23 11:23:59;;;;;;;8.45;6.32;;;;;;;20.96;61.32;95795.41;5004979;28;20266;-75
2021/06/23 11:26:28;;;;;;;7.05;6.10;;;;;;;20.81;64.08;95790.34;5006085;28;20678;-75
2021/06/23 11:28:58;;;;;;;6.95;6.32;;;;;;;20.64;66.52;95771.47;5012261;28;20179;-74
2021/06/23 11:32:03;;;;;;;7.65;6.50;;;;;;;20.28;66.12;95779.78;4994708;28;20199;-75
2021/06/23 11:34:40;;;;;;;8.55;5.38;;;;;;;20.04;67.36;95790.91;4920760;29;20715;-74
2021/06/23 11:37:08;;;;;;;6.68;5.47;;;;;;;20.20;68.98;95800.25;4935567;29;20594;-75
2021/06/23 11:39:34;;;;;;;9.20;6.68;;;;;;;20.18;70.27;95797.03;4935366;29;20264;-75
2021/06/23 11:41:59;;;;;;;11.80;8.18;;;;;;;19.91;73.70;95788.25;4935475;29;20248;-76